createdAt,value
2018-03-06T00:02:26.568Z,90.90
2018-03-06T00:06:27.953Z,91.20
2018-03-06T00:10:30.142Z,91.20
2018-03-06T00:14:32.308Z,91.30
2018-03-06T00:18:33.666Z,90.70
2018-03-06T00:22:35.692Z,90.80
2018-03-06T00:26:37.434Z,90.90
2018-03-06T00:30:39.491Z,91.20
2018-03-06T00:34:41.105Z,91.00
2018-03-06T00:38:42.793Z,91.10
2018-03-06T00:42:44.936Z,91.40
2018-03-06T00:46:48.039Z,91.80
2018-03-06T00:50:50.314Z,91.20
2018-03-06T00:54:51.987Z,91.50
2018-03-06T00:58:53.677Z,91.20
2018-03-06T01:02:56.713Z,91.20
2018-03-06T01:06:59.145Z,91.20
2018-03-06T01:11:00.432Z,91.60
2018-03-06T01:15:01.858Z,91.60
2018-03-06T01:19:03.528Z,91.70
2018-03-06T01:23:05.591Z,92.10
2018-03-06T01:27:07.726Z,91.90
2018-03-06T01:31:09.455Z,92.10
2018-03-06T01:35:11.183Z,91.60
2018-03-06T01:39:12.880Z,91.20
2018-03-06T01:43:14.903Z,91.50
2018-03-06T01:47:16.710Z,91.20
2018-03-06T01:51:18.777Z,91.30
2018-03-06T01:55:20.498Z,91.60
2018-03-06T01:59:21.801Z,91.50
2018-03-06T02:03:27.434Z,91.70
2018-03-06T02:07:28.754Z,92.00
2018-03-06T02:11:30.462Z,92.10
2018-03-06T02:15:32.147Z,92.00
2018-03-06T02:19:34.221Z,92.60
2018-03-06T02:23:35.523Z,92.20
2018-03-06T02:27:37.242Z,92.30
2018-03-06T02:31:40.016Z,91.90
2018-03-06T02:35:41.734Z,92.40
2018-03-06T02:39:43.148Z,92.40
2018-03-06T02:43:44.460Z,92.40
2018-03-06T02:47:45.772Z,92.40
2018-03-06T02:51:47.095Z,92.50
2018-03-06T02:55:54.590Z,92.60
2018-03-06T02:59:56.686Z,92.80
2018-03-06T03:03:58.386Z,92.80
2018-03-06T03:08:02.275Z,92.80
2018-03-06T03:12:03.590Z,92.60
2018-03-06T03:16:05.635Z,93.10
2018-03-06T03:20:07.295Z,93.00
2018-03-06T03:24:09.471Z,92.20
2018-03-06T03:28:11.149Z,92.80
2018-03-06T03:32:12.508Z,92.50
2018-03-06T03:36:13.889Z,92.80
2018-03-06T03:40:16.102Z,92.90
2018-03-06T03:44:18.496Z,92.90
2018-03-06T03:48:19.832Z,93.00
2018-03-06T03:52:22.560Z,92.80
2018-03-06T03:56:24.951Z,92.80
2018-03-06T04:00:27.024Z,92.80
2018-03-06T04:04:29.192Z,92.90
2018-03-06T04:08:30.495Z,92.50
2018-03-06T04:12:32.560Z,92.40
2018-03-06T04:16:34.301Z,92.50
2018-03-06T04:20:36.168Z,92.50
2018-03-06T04:24:38.397Z,92.70
2018-03-06T04:28:39.867Z,92.10
2018-03-06T04:32:41.973Z,92.70
2018-03-06T04:36:43.896Z,92.60
2018-03-06T04:40:45.676Z,92.60
2018-03-06T04:44:48.562Z,92.10
2018-03-06T04:48:50.374Z,92.70
2018-03-06T04:52:51.825Z,92.80
2018-03-06T04:56:53.202Z,93.00
2018-03-06T05:00:55.060Z,92.90
2018-03-06T05:04:56.804Z,92.60
2018-03-06T05:08:59.285Z,92.90
2018-03-06T05:13:01.448Z,92.90
2018-03-06T05:17:03.644Z,93.20
2018-03-06T05:21:05.787Z,93.10
2018-03-06T05:25:07.559Z,92.90
2018-03-06T05:29:11.012Z,93.10
2018-03-06T05:33:14.570Z,92.70
2018-03-06T05:37:16.693Z,93.30
2018-03-06T05:41:19.265Z,93.00
2018-03-06T05:45:20.688Z,93.10
2018-03-06T05:49:22.890Z,93.10
2018-03-06T05:53:24.375Z,93.20
2018-03-06T05:57:26.669Z,93.10
2018-03-06T06:01:28.897Z,93.10
2018-03-06T06:05:30.799Z,92.80
2018-03-06T06:09:32.311Z,92.90
2018-03-06T06:13:33.870Z,92.70
2018-03-06T06:17:35.726Z,92.80
2018-03-06T06:21:37.210Z,92.90
2018-03-06T06:25:38.507Z,92.90
2018-03-06T06:29:40.854Z,93.10
2018-03-06T06:33:42.986Z,93.30
2018-03-06T06:37:45.306Z,92.70
2018-03-06T06:41:47.121Z,93.20
2018-03-06T06:45:48.679Z,93.50
2018-03-06T06:49:50.402Z,92.70
2018-03-06T06:53:52.586Z,92.40
2018-03-06T06:57:54.662Z,92.70
2018-03-06T07:01:58.038Z,93.10
2018-03-06T07:06:00.278Z,93.30
2018-03-06T07:10:04.166Z,93.50
2018-03-06T07:14:13.716Z,93.80
2018-03-06T07:18:16.376Z,92.70
2018-03-06T07:22:18.481Z,91.90
2018-03-06T07:26:20.771Z,91.90
2018-03-06T07:30:22.490Z,92.00
2018-03-06T07:34:24.681Z,92.30
2018-03-06T07:38:28.208Z,92.70
2018-03-06T07:42:32.344Z,93.00
2018-03-06T07:46:34.411Z,93.20
2018-03-06T07:50:35.840Z,92.60
2018-03-06T07:54:38.081Z,92.50
2018-03-06T07:58:40.293Z,92.00
2018-03-06T08:02:42.437Z,91.60
2018-03-06T08:06:44.643Z,91.40
2018-03-06T08:10:47.014Z,91.40
2018-03-06T08:14:48.515Z,91.30
2018-03-06T08:18:54.248Z,91.30
2018-03-06T08:22:56.590Z,90.90
2018-03-06T08:26:58.024Z,90.30
2018-03-06T08:31:00.263Z,88.40
2018-03-06T08:35:03.720Z,85.20
2018-03-06T08:39:05.671Z,82.70
2018-03-06T08:43:07.452Z,77.80
2018-03-06T08:47:10.304Z,70.70
2018-03-06T08:51:12.461Z,71.60
2018-03-06T08:55:14.737Z,73.40
2018-03-06T08:59:16.222Z,69.90
2018-03-06T09:03:18.592Z,71.80
2018-03-06T09:07:20.846Z,70.50
2018-03-06T09:11:24.275Z,68.40
2018-03-06T09:15:26.381Z,67.20
2018-03-06T09:19:28.605Z,64.90
2018-03-06T09:23:31.263Z,62.60
2018-03-06T09:27:33.543Z,60.60
2018-03-06T09:31:35.602Z,56.30
2018-03-06T09:35:39.823Z,54.60
2018-03-06T09:39:44.310Z,52.50
2018-03-06T09:43:49.276Z,55.00
2018-03-06T09:47:54.642Z,53.50
2018-03-06T09:52:01.107Z,53.50
2018-03-06T09:56:04.182Z,54.40
2018-03-06T10:00:06.253Z,52.80
2018-03-06T10:04:12.544Z,51.30
2018-03-06T10:08:15.396Z,48.70
2018-03-06T10:12:16.672Z,48.70
2018-03-06T10:16:18.067Z,49.10
2018-03-06T10:20:20.106Z,48.20
2018-03-06T10:24:22.263Z,48.70
2018-03-06T10:28:23.943Z,48.90
2018-03-06T10:32:25.283Z,47.80
2018-03-06T10:36:26.962Z,48.40
2018-03-06T10:40:30.302Z,44.80
2018-03-06T10:44:31.981Z,42.90
2018-03-06T10:48:35.345Z,42.60
2018-03-06T10:52:36.645Z,42.60
2018-03-06T10:56:39.510Z,42.40
2018-03-06T11:00:46.520Z,44.80
2018-03-06T11:04:49.345Z,46.40
2018-03-06T11:08:51.136Z,47.80
2018-03-06T11:12:53.156Z,46.10
2018-03-06T11:16:55.020Z,45.90
2018-03-06T11:20:58.168Z,47.30
2018-03-06T11:24:59.954Z,45.40
2018-03-06T11:29:03.294Z,45.30
2018-03-06T11:33:05.500Z,47.20
2018-03-06T11:37:06.962Z,45.70
2018-03-06T11:41:09.202Z,46.00
2018-03-06T11:45:11.150Z,47.90
2018-03-06T11:49:12.906Z,49.00
2018-03-06T11:53:15.117Z,45.70
2018-03-06T11:57:18.189Z,44.10
2018-03-06T12:01:20.089Z,45.00
2018-03-06T12:05:22.144Z,45.40
2018-03-06T12:09:23.846Z,47.60
2018-03-06T12:13:25.481Z,48.60
2018-03-06T12:17:27.246Z,49.30
2018-03-06T12:21:29.650Z,48.30
2018-03-06T12:25:31.521Z,47.70
2018-03-06T12:29:34.644Z,47.80
2018-03-06T12:33:36.516Z,49.30
2018-03-06T12:37:37.909Z,49.30
2018-03-06T12:41:40.262Z,49.40
2018-03-06T12:45:43.041Z,49.60
2018-03-06T12:49:46.818Z,49.80
2018-03-06T12:53:48.909Z,51.00
2018-03-06T12:57:51.085Z,49.20
2018-03-06T13:01:54.781Z,50.00
2018-03-06T13:05:57.258Z,49.30
2018-03-06T13:09:59.256Z,49.50
2018-03-06T13:14:00.753Z,51.40
2018-03-06T13:18:02.907Z,51.30
2018-03-06T13:22:04.258Z,51.80
2018-03-06T13:26:05.948Z,51.60
2018-03-06T13:30:08.132Z,51.10
2018-03-06T13:34:10.196Z,51.60
2018-03-06T13:38:12.751Z,52.30
2018-03-06T13:42:14.501Z,51.60
2018-03-06T13:46:16.508Z,51.60
2018-03-06T13:50:18.205Z,53.20
2018-03-06T13:54:19.891Z,53.60
2018-03-06T13:58:22.043Z,54.10
2018-03-06T14:02:24.118Z,55.40
2018-03-06T14:06:26.265Z,54.00
2018-03-06T14:10:27.737Z,53.70
2018-03-06T14:14:29.094Z,54.60
2018-03-06T14:18:33.204Z,55.50
2018-03-06T14:22:34.879Z,54.80
2018-03-06T14:26:37.119Z,55.30
2018-03-06T14:30:40.832Z,55.50
2018-03-06T14:34:42.175Z,55.50
2018-03-06T14:38:44.345Z,54.80
2018-03-06T14:42:46.909Z,54.70
2018-03-06T14:46:49.745Z,55.40
2018-03-06T14:50:52.526Z,55.50
2018-03-06T14:54:54.278Z,54.70
2018-03-06T14:58:56.535Z,55.10
2018-03-06T15:02:58.750Z,54.60
2018-03-06T15:07:01.183Z,55.20
2018-03-06T15:11:04.963Z,55.60
2018-03-06T15:15:06.454Z,56.20
2018-03-06T15:19:09.393Z,55.60
2018-03-06T15:23:11.354Z,56.70
2018-03-06T15:27:14.270Z,56.50
2018-03-06T15:31:18.349Z,57.50
2018-03-06T15:35:19.697Z,57.30
2018-03-06T15:39:28.450Z,58.00
2018-03-06T15:43:30.638Z,57.90
2018-03-06T15:47:32.438Z,58.10
2018-03-06T15:51:34.569Z,57.80
2018-03-06T15:55:36.722Z,58.70
2018-03-06T15:59:38.024Z,58.90
2018-03-06T16:03:39.788Z,58.70
2018-03-06T16:07:41.441Z,58.80
2018-03-06T16:11:43.194Z,59.00
2018-03-06T16:15:44.877Z,59.00
2018-03-06T16:19:46.577Z,59.30
2018-03-06T16:23:47.906Z,59.80
2018-03-06T16:27:51.138Z,60.90
2018-03-06T16:31:52.490Z,60.00
2018-03-06T16:35:56.073Z,60.10
2018-03-06T16:39:58.144Z,59.60
2018-03-06T16:43:59.974Z,59.70
2018-03-06T16:48:01.276Z,60.40
2018-03-06T16:52:02.688Z,61.00
2018-03-06T16:56:04.737Z,61.50
2018-03-06T17:00:10.061Z,61.80
2018-03-06T17:04:11.378Z,63.70
2018-03-06T17:08:13.115Z,65.40
2018-03-06T17:12:14.434Z,66.80
2018-03-06T17:16:16.604Z,67.80
2018-03-06T17:20:18.291Z,69.40
2018-03-06T17:24:20.409Z,69.70
2018-03-06T17:28:21.730Z,70.80
2018-03-06T17:32:23.810Z,71.80
2018-03-06T17:36:25.886Z,72.30
2018-03-06T17:40:27.390Z,72.50
2018-03-06T17:44:30.208Z,73.40
2018-03-06T17:48:32.567Z,73.70
2018-03-06T17:52:34.320Z,73.40
2018-03-06T17:56:35.720Z,74.70
2018-03-06T18:00:40.157Z,75.60
2018-03-06T18:04:42.056Z,75.70
2018-03-06T18:08:45.483Z,75.60
2018-03-06T18:12:52.861Z,75.70
2018-03-06T18:16:54.995Z,76.90
2018-03-06T18:20:56.744Z,77.00
2018-03-06T18:24:58.899Z,77.20
2018-03-06T18:29:02.667Z,77.80
2018-03-06T18:33:04.111Z,78.30
2018-03-06T18:37:06.340Z,79.00
2018-03-06T18:41:09.507Z,79.70
2018-03-06T18:45:12.160Z,79.10
2018-03-06T18:49:15.375Z,78.50
2018-03-06T18:53:17.501Z,77.90
2018-03-06T18:57:19.172Z,77.80
2018-03-06T19:01:57.088Z,77.00
2018-03-06T19:10:40.257Z,78.30
2018-03-06T19:14:43.772Z,78.20
2018-03-06T19:18:46.955Z,78.20
2018-03-06T19:22:50.858Z,79.00
2018-03-06T19:26:54.921Z,79.60
2018-03-06T19:31:00.742Z,79.70
2018-03-06T19:35:04.281Z,80.50
2018-03-06T19:39:07.795Z,80.70
2018-03-06T19:43:11.469Z,80.20
2018-03-06T19:47:15.139Z,79.80
2018-03-06T19:51:18.749Z,79.10
2018-03-06T19:55:21.852Z,79.50
2018-03-06T19:59:25.393Z,80.00
2018-03-06T20:03:30.319Z,80.20
2018-03-06T20:07:36.176Z,81.10
2018-03-06T20:11:39.680Z,80.90
2018-03-06T20:15:43.266Z,81.20
2018-03-06T20:19:46.368Z,81.80
2018-03-06T20:23:49.639Z,80.60
2018-03-06T20:27:53.519Z,81.60
2018-03-06T20:32:02.432Z,81.80
2018-03-06T20:36:06.307Z,81.40
2018-03-06T20:40:15.273Z,81.00
2018-03-06T20:44:18.382Z,81.20
2018-03-06T20:48:22.321Z,81.80
2018-03-06T20:52:26.215Z,81.70
2018-03-06T20:56:29.393Z,81.40
2018-03-06T21:00:32.580Z,81.40
2018-03-06T21:04:36.539Z,82.50
2018-03-06T21:08:39.741Z,81.00
2018-03-06T21:12:44.322Z,81.10
2018-03-06T21:16:47.928Z,82.60
2018-03-06T21:20:51.543Z,82.20
2018-03-06T21:24:55.172Z,82.40
2018-03-06T21:28:59.128Z,83.00
2018-03-06T21:33:03.096Z,82.90
2018-03-06T21:37:07.048Z,82.60
2018-03-06T21:41:10.582Z,84.70
2018-03-06T21:45:14.156Z,86.10
2018-03-06T21:49:18.076Z,85.90
2018-03-06T21:53:22.754Z,85.90
2018-03-06T21:57:26.681Z,86.00
2018-03-06T22:01:30.698Z,86.80
2018-03-06T22:05:34.632Z,86.70
2018-03-06T22:09:37.804Z,86.40
2018-03-06T22:13:40.931Z,86.80
2018-03-06T22:17:44.592Z,87.10
2018-03-06T22:21:48.475Z,87.00
2018-03-06T22:25:52.101Z,87.00
2018-03-06T22:29:55.249Z,87.20
2018-03-06T22:33:58.709Z,87.70
2018-03-06T22:38:01.826Z,87.20
2018-03-06T22:42:07.331Z,87.10
2018-03-06T22:46:10.859Z,87.30
2018-03-06T22:50:14.010Z,87.70
2018-03-06T22:54:17.124Z,88.30
2018-03-06T22:58:20.353Z,88.70
2018-03-06T23:02:24.232Z,90.00
2018-03-06T23:06:27.877Z,89.80
2018-03-06T23:10:30.988Z,89.50
2018-03-06T23:14:35.264Z,89.30
2018-03-06T23:18:38.764Z,88.70
2018-03-06T23:22:43.674Z,88.30
2018-03-06T23:26:47.579Z,89.00
2018-03-06T23:30:50.807Z,88.40
2018-03-06T23:34:56.356Z,88.90
2018-03-06T23:39:00.740Z,88.70
2018-03-06T23:43:03.852Z,89.20
2018-03-06T23:47:07.788Z,89.60
2018-03-06T23:51:10.917Z,89.70
2018-03-06T23:55:14.078Z,90.30
2018-03-06T23:59:17.218Z,90.60
